Time;durP1;ratioP1;P1;durP2;ratioP2;P2;SDS_P1;SDS_P2;PMS_P1;PMS_P2;Temp;Humidity;BMP_temperature;BMP_pressure;BME280_temperature;BME280_humidity;BME280_pressure;Samples;Min_cycle;Max_cycle;Signal;HPM_P1;HPM_P2
2023/08/21 00:01:51;;;;;;;6.63;6.13;;;;;;;;;;4879866;29;20635;-69
2023/08/21 00:04:20;;;;;;;7.90;6.20;;;;;;;;;;4872661;29;21024;-68
2023/08/21 00:06:49;;;;;;;8.73;6.53;;;;;;;;;;4876346;29;20631;-69
2023/08/21 00:09:17;;;;;;;20.33;7.00;;;;;;;;;;4863055;29;20635;-68
2023/08/21 00:11:45;;;;;;;7.17;6.57;;;;;;;;;;4880247;29;21206;-69
2023/08/21 00:14:13;;;;;;;8.43;6.53;;;;;;;;;;4878827;29;20649;-69
2023/08/21 00:16:42;;;;;;;9.03;6.77;;;;;;;;;;4880421;29;20675;-69
2023/08/21 00:19:10;;;;;;;7.43;6.77;;;;;;;;;;4879705;29;20643;-69
2023/08/21 00:21:39;;;;;;;6.53;5.93;;;;;;;;;;4880046;29;20635;-68
2023/08/21 00:24:08;;;;;;;6.97;6.30;;;;;;;;;;4860837;29;20619;-68
2023/08/21 00:26:36;;;;;;;11.17;6.00;;;;;;;;;;4867798;29;20635;-68
2023/08/21 00:29:04;;;;;;;6.13;5.63;;;;;;;;;;4862605;29;20707;-69
2023/08/21 00:31:34;;;;;;;7.00;6.47;;;;;;;;;;4863439;29;20627;-69
2023/08/21 00:34:02;;;;;;;7.50;6.13;;;;;;;;;;4868960;29;20667;-69
2023/08/21 00:36:30;;;;;;;9.03;7.00;;;;;;;;;;4863127;29;20627;-68
2023/08/21 00:39:00;;;;;;;7.20;6.60;;;;;;;;;;4879392;29;20631;-69
2023/08/21 00:41:28;;;;;;;7.73;7.00;;;;;;;;;;4879713;29;20630;-69
2023/08/21 00:43:57;;;;;;;9.23;6.30;;;;;;;;;;4879510;29;20635;-68
2023/08/21 00:46:25;;;;;;;6.93;6.33;;;;;;;;;;4879738;29;20639;-69
2023/08/21 00:48:53;;;;;;;8.20;7.37;;;;;;;;;;4878715;29;20638;-69
2023/08/21 00:51:22;;;;;;;7.50;6.43;;;;;;;;;;4879450;29;20633;-69
2023/08/21 00:53:50;;;;;;;9.03;6.60;;;;;;;;;;4874899;29;20671;-69
2023/08/21 00:56:20;;;;;;;6.90;6.30;;;;;;;;;;4879165;29;20631;-68
2023/08/21 00:58:49;;;;;;;7.23;6.53;;;;;;;;;;4879295;29;21160;-69
2023/08/21 01:01:19;;;;;;;7.03;6.43;;;;;;;;;;4861603;29;20682;-66
2023/08/21 01:03:48;;;;;;;6.93;6.27;;;;;;;;;;4857015;29;20678;-66
2023/08/21 01:06:16;;;;;;;7.23;6.63;;;;;;;;;;4864652;29;20635;-66
2023/08/21 01:08:48;;;;;;;7.60;6.70;;;;;;;;;;4878768;29;21298;-65
2023/08/21 01:11:23;;;;;;;8.33;7.27;;;;;;;;;;4881751;29;20607;-65
2023/08/21 01:13:56;;;;;;;7.43;6.73;;;;;;;;;;4891780;29;20732;-65
2023/08/21 01:16:26;;;;;;;7.00;6.37;;;;;;;;;;4888510;29;20678;-64
2023/08/21 01:18:57;;;;;;;7.73;6.83;;;;;;;;;;4872964;29;20719;-64
2023/08/21 01:21:25;;;;;;;7.20;6.60;;;;;;;;;;4872241;29;20672;-69
2023/08/21 01:23:56;;;;;;;7.03;6.53;;;;;;;;;;4882605;29;20699;-65
2023/08/21 01:26:24;;;;;;;6.47;5.97;;;;;;;;;;4891302;29;21190;-65
2023/08/21 01:28:54;;;;;;;7.40;6.70;;;;;;;;;;4874695;29;21125;-65
2023/08/21 01:31:25;;;;;;;7.20;6.40;;;;;;;;;;4874444;29;20706;-65
2023/08/21 01:33:58;;;;;;;8.87;6.73;;;;;;;;;;4874242;29;20741;-67
2023/08/21 01:36:27;;;;;;;13.43;8.17;;;;;;;;;;4873458;29;20698;-65
2023/08/21 01:38:56;;;;;;;6.80;6.40;;;;;;;;;;4890621;29;20714;-69
2023/08/21 01:41:25;;;;;;;7.50;6.90;;;;;;;;;;4890810;29;20718;-65
2023/08/21 01:43:53;;;;;;;8.47;6.23;;;;;;;;;;4890018;29;20730;-65
2023/08/21 01:46:22;;;;;;;8.13;7.17;;;;;;;;;;4883200;29;20716;-65
2023/08/21 01:48:50;;;;;;;8.30;7.50;;;;;;;;;;4889734;29;20707;-65
2023/08/21 01:51:18;;;;;;;7.83;7.13;;;;;;;;;;4890358;29;20703;-65
2023/08/21 01:53:47;;;;;;;8.60;6.20;;;;;;;;;;4890204;29;20734;-65
2023/08/21 01:56:16;;;;;;;8.93;6.67;;;;;;;;;;4874809;29;20695;-68
2023/08/21 01:58:44;;;;;;;7.30;6.70;;;;;;;;;;4874063;29;20737;-65
2023/08/21 02:01:14;;;;;;;7.10;6.60;;;;;;;;;;4874437;29;20707;-65
2023/08/21 02:03:42;;;;;;;9.10;6.60;;;;;;;;;;4888588;29;21104;-65
2023/08/21 02:06:11;;;;;;;7.70;6.90;;;;;;;;;;4870333;29;20751;-65
2023/08/21 02:08:41;;;;;;;7.40;6.60;;;;;;;;;;4891292;29;20691;-64
2023/08/21 02:11:09;;;;;;;7.40;6.73;;;;;;;;;;4890163;29;20722;-64
2023/08/21 02:13:38;;;;;;;6.70;6.13;;;;;;;;;;4890500;29;20756;-64
2023/08/21 02:16:07;;;;;;;11.73;6.40;;;;;;;;;;4890311;29;20706;-65
2023/08/21 02:18:35;;;;;;;7.57;6.70;;;;;;;;;;4873846;29;20723;-67
2023/08/21 02:21:03;;;;;;;9.73;7.40;;;;;;;;;;4888943;29;20762;-64
2023/08/21 02:23:31;;;;;;;9.00;8.20;;;;;;;;;;4889765;29;20699;-64
2023/08/21 02:26:00;;;;;;;8.50;7.80;;;;;;;;;;4889452;29;20766;-65
2023/08/21 02:28:28;;;;;;;14.93;7.23;;;;;;;;;;4883667;29;20752;-68
2023/08/21 02:30:58;;;;;;;8.07;7.40;;;;;;;;;;4877307;29;20691;-69
2023/08/21 02:33:26;;;;;;;7.47;6.70;;;;;;;;;;4878050;29;20659;-68
2023/08/21 02:35:55;;;;;;;9.17;7.30;;;;;;;;;;4877632;29;20691;-68
2023/08/21 02:38:23;;;;;;;8.67;7.90;;;;;;;;;;4877682;29;20635;-68
2023/08/21 02:40:51;;;;;;;7.73;6.83;;;;;;;;;;4877345;29;20683;-68
2023/08/21 02:43:19;;;;;;;7.73;6.93;;;;;;;;;;4846006;29;20639;-69
2023/08/21 02:45:49;;;;;;;8.07;7.30;;;;;;;;;;4877185;29;20607;-69
2023/08/21 02:48:19;;;;;;;9.00;6.80;;;;;;;;;;4877150;29;20639;-69
2023/08/21 02:50:47;;;;;;;10.10;8.57;;;;;;;;;;4877195;29;20639;-69
2023/08/21 02:53:15;;;;;;;11.30;6.40;;;;;;;;;;4877693;29;20671;-69
2023/08/21 02:55:44;;;;;;;7.27;6.67;;;;;;;;;;4877054;29;20635;-68
2023/08/21 02:58:14;;;;;;;8.00;6.50;;;;;;;;;;4877896;29;20975;-68
2023/08/21 03:00:43;;;;;;;8.50;7.70;;;;;;;;;;4876300;29;20694;-69
2023/08/21 03:03:12;;;;;;;10.27;7.60;;;;;;;;;;4855232;29;21053;-69
2023/08/21 03:05:41;;;;;;;11.70;7.37;;;;;;;;;;4875519;29;21172;-69
2023/08/21 03:08:09;;;;;;;7.73;6.90;;;;;;;;;;4876972;29;20636;-69
2023/08/21 03:10:38;;;;;;;9.40;8.07;;;;;;;;;;4877684;29;20619;-69
2023/08/21 03:13:06;;;;;;;8.17;7.47;;;;;;;;;;4879971;29;20635;-69
2023/08/21 03:15:35;;;;;;;10.57;7.73;;;;;;;;;;4876596;29;20632;-69
2023/08/21 03:18:04;;;;;;;7.67;7.00;;;;;;;;;;4865766;29;20631;-69
2023/08/21 03:20:33;;;;;;;9.40;7.07;;;;;;;;;;4865475;29;20656;-69
2023/08/21 03:23:03;;;;;;;7.80;7.13;;;;;;;;;;4881999;29;20654;-66
2023/08/21 03:25:31;;;;;;;7.70;6.90;;;;;;;;;;4892230;29;20767;-65
2023/08/21 03:27:59;;;;;;;7.10;6.53;;;;;;;;;;4877133;29;20738;-64
2023/08/21 03:30:28;;;;;;;11.70;7.70;;;;;;;;;;4876494;29;20705;-65
2023/08/21 03:32:56;;;;;;;7.43;6.73;;;;;;;;;;4891006;29;20702;-65
2023/08/21 03:35:26;;;;;;;8.00;7.13;;;;;;;;;;4861655;29;21085;-67
2023/08/21 03:37:54;;;;;;;7.50;6.90;;;;;;;;;;4894146;29;20722;-64
2023/08/21 03:40:23;;;;;;;8.13;7.23;;;;;;;;;;4893303;29;20714;-65
2023/08/21 03:42:53;;;;;;;8.33;7.63;;;;;;;;;;4877152;29;20732;-64
2023/08/21 03:45:22;;;;;;;9.37;8.47;;;;;;;;;;4876314;29;20699;-65
2023/08/21 03:47:50;;;;;;;9.80;7.20;;;;;;;;;;4892823;29;21045;-64
2023/08/21 03:50:21;;;;;;;7.20;6.70;;;;;;;;;;4859285;29;20715;-64
2023/08/21 03:52:50;;;;;;;7.90;7.30;;;;;;;;;;4877078;29;20723;-65
2023/08/21 03:55:18;;;;;;;9.60;6.97;;;;;;;;;;4876429;29;20738;-65
2023/08/21 03:57:48;;;;;;;9.07;7.43;;;;;;;;;;4893016;29;20722;-64
2023/08/21 04:00:16;;;;;;;7.47;6.77;;;;;;;;;;4892818;29;20709;-65
2023/08/21 04:02:45;;;;;;;8.63;7.60;;;;;;;;;;4891777;29;20691;-65
2023/08/21 04:05:13;;;;;;;8.13;7.43;;;;;;;;;;4892237;29;20746;-64
2023/08/21 04:07:41;;;;;;;7.47;6.63;;;;;;;;;;4892190;29;20703;-66
2023/08/21 04:10:10;;;;;;;8.43;7.30;;;;;;;;;;4876663;29;20771;-64
2023/08/21 04:12:38;;;;;;;9.57;8.67;;;;;;;;;;4892798;29;20718;-64
2023/08/21 04:15:09;;;;;;;11.03;8.40;;;;;;;;;;4892599;29;20757;-64
2023/08/21 04:17:37;;;;;;;8.30;7.60;;;;;;;;;;4875841;29;20694;-65
2023/08/21 04:20:06;;;;;;;9.57;8.67;;;;;;;;;;4892923;29;20726;-64
2023/08/21 04:22:36;;;;;;;10.60;8.47;;;;;;;;;;4892181;29;20678;-65
2023/08/21 04:25:04;;;;;;;12.13;8.13;;;;;;;;;;4874820;29;20702;-64
2023/08/21 04:27:32;;;;;;;10.93;9.70;;;;;;;;;;4892233;29;20706;-64
2023/08/21 04:30:01;;;;;;;9.30;8.60;;;;;;;;;;4891860;29;20705;-64
2023/08/21 04:32:30;;;;;;;10.60;8.63;;;;;;;;;;4860177;29;20690;-65
2023/08/21 04:34:59;;;;;;;8.87;8.17;;;;;;;;;;4892411;29;20765;-64
2023/08/21 04:37:27;;;;;;;10.53;9.43;;;;;;;;;;4892427;29;20698;-65
2023/08/21 04:39:56;;;;;;;9.57;8.83;;;;;;;;;;4891802;29;20750;-69
2023/08/21 04:42:24;;;;;;;9.47;8.67;;;;;;;;;;4892866;29;21085;-68
2023/08/21 04:44:52;;;;;;;10.30;9.27;;;;;;;;;;4875470;29;20683;-65
2023/08/21 04:47:21;;;;;;;13.60;8.57;;;;;;;;;;4860060;29;20690;-64
2023/08/21 04:49:51;;;;;;;12.17;10.27;;;;;;;;;;4859335;29;21298;-62
2023/08/21 04:52:20;;;;;;;12.67;10.03;;;;;;;;;;4875274;29;20687;-63
2023/08/21 04:54:49;;;;;;;10.80;8.80;;;;;;;;;;4874503;29;20749;-64
2023/08/21 04:57:17;;;;;;;10.07;9.27;;;;;;;;;;4890089;29;20690;-64
2023/08/21 04:59:45;;;;;;;10.40;9.50;;;;;;;;;;4891711;29;20723;-63
2023/08/21 05:02:14;;;;;;;10.73;9.53;;;;;;;;;;4873204;29;20698;-64
2023/08/21 05:04:42;;;;;;;11.43;8.70;;;;;;;;;;4872812;29;20749;-64
2023/08/21 05:07:13;;;;;;;9.83;9.03;;;;;;;;;;4890504;29;20698;-63
2023/08/21 05:09:41;;;;;;;9.93;9.03;;;;;;;;;;4874365;29;20662;-65
2023/08/21 05:12:11;;;;;;;10.60;9.57;;;;;;;;;;4875475;29;20694;-64
2023/08/21 05:14:41;;;;;;;10.30;9.30;;;;;;;;;;4886352;29;20794;-64
2023/08/21 05:17:09;;;;;;;10.83;9.73;;;;;;;;;;4886311;29;20740;-64
2023/08/21 05:19:38;;;;;;;10.53;9.50;;;;;;;;;;4873652;29;20746;-63
2023/08/21 05:22:06;;;;;;;14.20;9.87;;;;;;;;;;4873896;29;20773;-63
2023/08/21 05:24:36;;;;;;;15.87;10.17;;;;;;;;;;4874807;29;20683;-64
2023/08/21 05:27:06;;;;;;;10.20;9.20;;;;;;;;;;4858109;29;20707;-64
2023/08/21 05:29:35;;;;;;;12.23;9.60;;;;;;;;;;4874012;29;20730;-63
2023/08/21 05:32:04;;;;;;;17.23;9.50;;;;;;;;;;4873765;29;20699;-64
2023/08/21 05:34:32;;;;;;;10.17;9.27;;;;;;;;;;4890333;29;21035;-63
2023/08/21 05:37:00;;;;;;;10.40;9.43;;;;;;;;;;4871194;29;20695;-63
2023/08/21 05:39:29;;;;;;;13.47;10.27;;;;;;;;;;4874512;29;20702;-63
2023/08/21 05:41:59;;;;;;;10.43;9.47;;;;;;;;;;4889797;29;20723;-65
2023/08/21 05:44:27;;;;;;;10.70;9.80;;;;;;;;;;4890990;29;20712;-64
2023/08/21 05:46:56;;;;;;;10.27;9.33;;;;;;;;;;4873752;29;20696;-66
2023/08/21 05:49:24;;;;;;;12.37;10.27;;;;;;;;;;4890926;29;20830;-64
2023/08/21 05:51:53;;;;;;;11.87;10.10;;;;;;;;;;4890065;29;20627;-63
2023/08/21 05:54:21;;;;;;;10.40;9.40;;;;;;;;;;4891385;29;20706;-63
2023/08/21 05:56:50;;;;;;;10.47;9.57;;;;;;;;;;4873074;29;20756;-64
2023/08/21 05:59:29;;;;;;;10.03;9.07;;;;;;;;;;4874195;29;20727;-64
2023/08/21 06:01:57;;;;;;;11.00;10.10;;;;;;;;;;4891826;29;21041;-66
2023/08/21 06:04:27;;;;;;;10.87;9.73;;;;;;;;;;4871884;29;20749;-67
2023/08/21 06:07:03;;;;;;;10.80;9.90;;;;;;;;;;4872388;29;20698;-66
2023/08/21 06:09:33;;;;;;;10.43;9.43;;;;;;;;;;4876094;29;20703;-63
2023/08/21 06:12:02;;;;;;;11.23;9.83;;;;;;;;;;4891561;29;20698;-68
2023/08/21 06:14:32;;;;;;;13.77;10.37;;;;;;;;;;4889945;29;20791;-64
2023/08/21 06:17:03;;;;;;;11.33;10.23;;;;;;;;;;4885796;29;21213;-64
2023/08/21 06:19:31;;;;;;;10.43;9.40;;;;;;;;;;4864372;29;20634;-64
2023/08/21 06:22:01;;;;;;;9.50;8.70;;;;;;;;;;4865428;29;20623;-64
2023/08/21 06:24:29;;;;;;;11.00;9.80;;;;;;;;;;4879959;29;20726;-64
2023/08/21 06:27:02;;;;;;;11.17;10.27;;;;;;;;;;4864067;29;20702;-64
2023/08/21 06:29:32;;;;;;;10.43;9.37;;;;;;;;;;4849382;29;20760;-64
2023/08/21 06:32:01;;;;;;;12.20;10.03;;;;;;;;;;4865164;29;20607;-64
2023/08/21 06:34:29;;;;;;;10.50;9.60;;;;;;;;;;4864906;29;21002;-64
2023/08/21 06:36:57;;;;;;;9.80;9.10;;;;;;;;;;4881794;29;20663;-64
2023/08/21 06:39:27;;;;;;;12.77;10.33;;;;;;;;;;4881467;29;20681;-66
2023/08/21 06:41:55;;;;;;;12.20;11.03;;;;;;;;;;4866015;29;20715;-66
2023/08/21 06:44:27;;;;;;;9.17;8.37;;;;;;;;;;4865667;29;20702;-66
2023/08/21 06:46:56;;;;;;;17.57;10.00;;;;;;;;;;4881188;29;20722;-68
2023/08/21 06:49:24;;;;;;;10.53;9.50;;;;;;;;;;4882367;29;20775;-64
2023/08/21 06:51:53;;;;;;;10.97;9.97;;;;;;;;;;4879071;29;20745;-64
2023/08/21 06:54:21;;;;;;;11.80;10.37;;;;;;;;;;4881251;29;20636;-65
2023/08/21 06:56:49;;;;;;;10.27;9.23;;;;;;;;;;4877746;29;20734;-64
2023/08/21 06:59:17;;;;;;;10.53;9.63;;;;;;;;;;4881783;29;20718;-66
2023/08/21 07:01:45;;;;;;;10.20;9.20;;;;;;;;;;4877553;29;20650;-65
2023/08/21 07:04:15;;;;;;;10.13;9.17;;;;;;;;;;4881849;29;20839;-64
2023/08/21 07:06:43;;;;;;;14.63;8.07;;;;;;;;;;4876837;29;20655;-64
2023/08/21 07:09:11;;;;;;;15.40;9.80;;;;;;;;;;4879329;29;21188;-68
2023/08/21 07:11:39;;;;;;;10.63;9.60;;;;;;;;;;4879559;29;20975;-63
2023/08/21 07:14:08;;;;;;;10.50;9.70;;;;;;;;;;4860141;29;20635;-65
2023/08/21 07:16:36;;;;;;;9.93;9.17;;;;;;;;;;4878670;29;20667;-65
2023/08/21 07:19:05;;;;;;;10.30;9.40;;;;;;;;;;4878686;29;20623;-65
2023/08/21 07:21:36;;;;;;;10.10;9.20;;;;;;;;;;4873752;29;20702;-65
2023/08/21 07:24:04;;;;;;;11.97;8.67;;;;;;;;;;4879374;29;20625;-65
2023/08/21 07:26:32;;;;;;;8.97;8.17;;;;;;;;;;4876682;29;20638;-65
2023/08/21 07:29:01;;;;;;;9.60;8.90;;;;;;;;;;4861696;29;20650;-65
2023/08/21 07:31:29;;;;;;;10.13;9.23;;;;;;;;;;4876305;29;20661;-66
2023/08/21 07:33:57;;;;;;;13.00;9.50;;;;;;;;;;4876678;29;20991;-66
2023/08/21 07:36:25;;;;;;;10.03;9.00;;;;;;;;;;4877277;29;20675;-67
2023/08/21 07:38:55;;;;;;;10.00;9.20;;;;;;;;;;4860736;29;20744;-66
2023/08/21 07:41:23;;;;;;;11.77;9.40;;;;;;;;;;4876730;29;20639;-66
2023/08/21 07:43:51;;;;;;;9.77;9.00;;;;;;;;;;4876805;29;20643;-65
2023/08/21 07:46:20;;;;;;;10.00;9.00;;;;;;;;;;4870708;29;20986;-65
2023/08/21 07:48:49;;;;;;;15.10;8.90;;;;;;;;;;4878274;29;20658;-66
2023/08/21 07:51:17;;;;;;;10.97;9.97;;;;;;;;;;4876948;29;20636;-66
2023/08/21 07:53:45;;;;;;;9.63;8.50;;;;;;;;;;4876962;29;20703;-65
2023/08/21 07:56:15;;;;;;;9.20;8.40;;;;;;;;;;4879152;29;20671;-66
2023/08/21 07:58:43;;;;;;;8.67;7.73;;;;;;;;;;4877379;29;20649;-64
2023/08/21 08:01:11;;;;;;;9.37;8.50;;;;;;;;;;4881582;29;20643;-63
2023/08/21 08:03:39;;;;;;;9.10;8.20;;;;;;;;;;4877218;29;20687;-64
2023/08/21 08:06:07;;;;;;;9.07;8.27;;;;;;;;;;4878957;29;21161;-64
2023/08/21 08:08:36;;;;;;;10.73;8.93;;;;;;;;;;4882938;29;20631;-67
2023/08/21 08:11:06;;;;;;;8.83;8.13;;;;;;;;;;4866069;29;20649;-64
2023/08/21 08:13:35;;;;;;;9.50;8.57;;;;;;;;;;4880709;29;20644;-64
2023/08/21 08:16:03;;;;;;;9.27;8.30;;;;;;;;;;4882088;29;20679;-64
2023/08/21 08:18:31;;;;;;;10.07;9.17;;;;;;;;;;4880874;29;20663;-65
2023/08/21 08:21:00;;;;;;;9.10;8.30;;;;;;;;;;4882688;29;20987;-64
2023/08/21 08:23:28;;;;;;;9.87;8.93;;;;;;;;;;4881747;29;20630;-64
2023/08/21 08:25:57;;;;;;;8.77;8.07;;;;;;;;;;4868556;29;20650;-64
2023/08/21 08:28:25;;;;;;;15.23;8.50;;;;;;;;;;4882516;29;20641;-69
2023/08/21 08:30:54;;;;;;;11.07;8.33;;;;;;;;;;4881343;29;20709;-64
2023/08/21 08:33:23;;;;;;;13.20;8.20;;;;;;;;;;4882113;29;20623;-64
2023/08/21 08:35:51;;;;;;;10.07;8.03;;;;;;;;;;4879775;29;20999;-64
2023/08/21 08:38:19;;;;;;;8.90;8.13;;;;;;;;;;4880223;29;20643;-64
2023/08/21 08:40:48;;;;;;;8.90;8.03;;;;;;;;;;4882285;29;20607;-64
2023/08/21 08:43:16;;;;;;;8.87;8.10;;;;;;;;;;4881337;29;21203;-64
2023/08/21 08:45:56;;;;;;;9.93;8.90;;;;;;;;;;4880873;29;20615;-64
2023/08/21 08:48:26;;;;;;;10.00;8.73;;;;;;;;;;4864551;29;21199;-68
2023/08/21 08:50:55;;;;;;;8.73;8.03;;;;;;;;;;4879549;29;20638;-64
2023/08/21 08:53:24;;;;;;;10.10;8.30;;;;;;;;;;4881026;29;20632;-65
2023/08/21 08:55:52;;;;;;;8.60;8.00;;;;;;;;;;4881560;29;20641;-65
2023/08/21 08:58:20;;;;;;;9.77;9.03;;;;;;;;;;4881813;29;20700;-64
2023/08/21 09:00:48;;;;;;;9.73;8.80;;;;;;;;;;4881255;29;20724;-66
2023/08/21 09:03:18;;;;;;;9.23;8.40;;;;;;;;;;4876430;29;20681;-64
2023/08/21 09:05:48;;;;;;;12.33;8.43;;;;;;;;;;4880109;29;20622;-66
2023/08/21 09:08:16;;;;;;;9.60;8.60;;;;;;;;;;4881636;29;20633;-64
2023/08/21 09:10:45;;;;;;;10.47;9.47;;;;;;;;;;4880373;29;20639;-65
2023/08/21 09:13:14;;;;;;;9.87;8.87;;;;;;;;;;4881677;29;20631;-65
2023/08/21 09:15:43;;;;;;;9.67;8.70;;;;;;;;;;4879032;29;20639;-65
2023/08/21 09:18:12;;;;;;;9.00;8.40;;;;;;;;;;4864290;29;20666;-65
2023/08/21 09:20:42;;;;;;;9.27;8.47;;;;;;;;;;4881779;29;20639;-64
2023/08/21 09:23:14;;;;;;;10.43;9.10;;;;;;;;;;4881196;29;20639;-63
2023/08/21 09:25:44;;;;;;;9.17;8.37;;;;;;;;;;4882208;29;21224;-65
2023/08/21 09:28:12;;;;;;;11.70;8.10;;;;;;;;;;4880837;29;20698;-65
2023/08/21 09:30:47;;;;;;;8.90;8.30;;;;;;;;;;4880141;29;20637;-65
2023/08/21 09:33:18;;;;;;;9.93;8.40;;;;;;;;;;4863661;29;21075;-65
2023/08/21 09:35:48;;;;;;;9.90;9.00;;;;;;;;;;4872078;29;20617;-64
2023/08/21 09:38:16;;;;;;;11.97;10.93;;;;;;;;;;4880605;29;20666;-64
2023/08/21 09:40:45;;;;;;;10.70;9.63;;;;;;;;;;4880237;29;21057;-64
2023/08/21 09:43:13;;;;;;;10.27;9.40;;;;;;;;;;4879666;29;20635;-64
2023/08/21 09:45:42;;;;;;;16.53;9.70;;;;;;;;;;4880583;29;20675;-64
2023/08/21 09:48:10;;;;;;;10.40;9.33;;;;;;;;;;4880299;29;20623;-63
2023/08/21 09:50:40;;;;;;;9.60;9.00;;;;;;;;;;4880096;29;20631;-65
2023/08/21 09:53:10;;;;;;;12.20;9.30;;;;;;;;;;4879384;29;20635;-64
2023/08/21 09:55:57;;;;;;;9.93;8.93;;;;;;;;;;4880989;29;20583;-64
2023/08/21 09:58:25;;;;;;;10.57;9.73;;;;;;;;;;4863590;29;20677;-68
2023/08/21 10:00:57;;;;;;;10.37;9.47;;;;;;;;;;4879919;29;20690;-65
2023/08/21 10:03:26;;;;;;;9.77;9.10;;;;;;;;;;4878677;29;20663;-64
2023/08/21 10:05:56;;;;;;;9.20;8.40;;;;;;;;;;4864596;29;20647;-65
2023/08/21 10:08:27;;;;;;;9.50;8.80;;;;;;;;;;4879315;29;20634;-64
2023/08/21 10:10:55;;;;;;;10.00;9.20;;;;;;;;;;4879863;29;20630;-68
2023/08/21 10:13:24;;;;;;;10.40;9.33;;;;;;;;;;4879809;29;20639;-64
2023/08/21 10:15:52;;;;;;;11.83;10.23;;;;;;;;;;4879482;29;20997;-65
2023/08/21 10:18:21;;;;;;;9.90;9.10;;;;;;;;;;4879691;29;20675;-65
2023/08/21 10:20:49;;;;;;;9.63;8.73;;;;;;;;;;4879720;29;20619;-64
2023/08/21 10:23:30;;;;;;;9.70;8.70;;;;;;;;;;4879455;29;20643;-64
2023/08/21 10:25:59;;;;;;;9.93;9.03;;;;;;;;;;4879230;29;20633;-64
2023/08/21 10:28:27;;;;;;;9.37;8.67;;;;;;;;;;4878682;29;20628;-67
2023/08/21 10:30:56;;;;;;;10.23;9.33;;;;;;;;;;4882978;29;20722;-69
2023/08/21 10:33:39;;;;;;;9.80;8.97;;;;;;;;;;4884604;29;20647;-70
2023/08/21 10:36:07;;;;;;;10.10;9.30;;;;;;;;;;4880076;29;20759;-68
2023/08/21 10:38:57;;;;;;;9.57;8.87;;;;;;;;;;4887708;29;20675;-68
2023/08/21 10:41:28;;;;;;;9.17;8.27;;;;;;;;;;4868112;29;20694;-68
2023/08/21 10:43:56;;;;;;;10.50;9.50;;;;;;;;;;4885878;29;20678;-69
2023/08/21 10:46:24;;;;;;;9.93;9.23;;;;;;;;;;4886943;29;20703;-70
2023/08/21 10:48:52;;;;;;;9.70;8.90;;;;;;;;;;4889953;29;20713;-70
2023/08/21 10:51:21;;;;;;;9.50;8.70;;;;;;;;;;4898765;29;20722;-70
2023/08/21 10:53:50;;;;;;;9.77;9.17;;;;;;;;;;4886591;29;20734;-70
2023/08/21 10:56:19;;;;;;;10.17;9.47;;;;;;;;;;4884907;29;20726;-70
2023/08/21 10:58:47;;;;;;;10.00;9.20;;;;;;;;;;4869723;29;20755;-70
2023/08/21 11:01:16;;;;;;;10.93;9.90;;;;;;;;;;4884213;29;20714;-69
2023/08/21 11:03:47;;;;;;;10.13;9.17;;;;;;;;;;4881378;29;20770;-70
2023/08/21 11:06:15;;;;;;;10.20;9.43;;;;;;;;;;4883331;29;20694;-68
2023/08/21 11:08:43;;;;;;;10.40;9.80;;;;;;;;;;4886212;29;20706;-69
2023/08/21 11:11:13;;;;;;;9.73;9.13;;;;;;;;;;4885243;29;20758;-70
2023/08/21 11:13:41;;;;;;;10.10;9.50;;;;;;;;;;4885447;29;20721;-70
2023/08/21 11:16:10;;;;;;;10.30;9.60;;;;;;;;;;4882843;29;20711;-70
2023/08/21 11:18:38;;;;;;;11.33;10.53;;;;;;;;;;4886516;29;20742;-70
2023/08/21 11:21:09;;;;;;;10.70;10.00;;;;;;;;;;4884925;29;20746;-70
2023/08/21 11:23:38;;;;;;;11.57;10.53;;;;;;;;;;4885915;29;20695;-70
2023/08/21 11:26:07;;;;;;;11.97;11.10;;;;;;;;;;4885360;29;20711;-70
2023/08/21 11:28:36;;;;;;;11.53;10.80;;;;;;;;;;4870394;29;20738;-69
2023/08/21 11:31:05;;;;;;;11.57;10.87;;;;;;;;;;4856005;29;20698;-71
2023/08/21 11:33:34;;;;;;;11.70;10.57;;;;;;;;;;4887682;29;20699;-71
2023/08/21 11:36:02;;;;;;;11.00;10.47;;;;;;;;;;4891256;29;20672;-70
2023/08/21 11:38:30;;;;;;;11.90;11.20;;;;;;;;;;4891827;29;20748;-70
2023/08/21 11:40:59;;;;;;;11.50;10.83;;;;;;;;;;4891970;29;20689;-69
2023/08/21 11:43:39;;;;;;;12.20;11.17;;;;;;;;;;4891858;29;20707;-69
2023/08/21 11:46:07;;;;;;;11.37;10.40;;;;;;;;;;4891593;29;20694;-71
2023/08/21 11:48:38;;;;;;;13.43;10.80;;;;;;;;;;4891406;29;20716;-70
2023/08/21 11:51:08;;;;;;;11.07;10.27;;;;;;;;;;4891406;29;20700;-71
2023/08/21 11:53:37;;;;;;;10.57;9.90;;;;;;;;;;4892059;29;20717;-70
2023/08/21 11:56:10;;;;;;;11.20;10.50;;;;;;;;;;4883841;29;20699;-70
2023/08/21 11:58:41;;;;;;;11.40;10.40;;;;;;;;;;4882993;29;20716;-69
2023/08/21 12:01:09;;;;;;;11.77;11.03;;;;;;;;;;4874480;29;20690;-69
2023/08/21 12:03:38;;;;;;;11.80;10.90;;;;;;;;;;4890179;29;20749;-69
2023/08/21 12:06:07;;;;;;;11.80;10.97;;;;;;;;;;4889118;29;20716;-70
2023/08/21 12:08:35;;;;;;;10.97;10.47;;;;;;;;;;4890851;29;20716;-70
2023/08/21 12:11:04;;;;;;;11.50;10.83;;;;;;;;;;4891102;29;20706;-70
2023/08/21 12:13:32;;;;;;;11.40;10.60;;;;;;;;;;4890929;29;20722;-71
2023/08/21 12:16:02;;;;;;;11.10;10.33;;;;;;;;;;4890366;29;21240;-70
2023/08/21 12:18:30;;;;;;;11.93;11.10;;;;;;;;;;4890473;29;20726;-70
2023/08/21 12:20:58;;;;;;;11.37;10.67;;;;;;;;;;4890654;29;20703;-70
2023/08/21 12:23:26;;;;;;;10.73;10.13;;;;;;;;;;4891495;29;21036;-69
2023/08/21 12:25:55;;;;;;;11.83;11.17;;;;;;;;;;4891507;29;20926;-71
2023/08/21 12:28:23;;;;;;;11.40;10.60;;;;;;;;;;4877115;29;21246;-69
2023/08/21 12:30:51;;;;;;;10.93;10.33;;;;;;;;;;4873027;29;20695;-70
2023/08/21 12:33:21;;;;;;;10.80;10.20;;;;;;;;;;4886988;29;20695;-70
2023/08/21 12:35:49;;;;;;;11.43;10.93;;;;;;;;;;4891017;29;20750;-70
2023/08/21 12:38:17;;;;;;;11.17;10.37;;;;;;;;;;4890028;29;20726;-70
2023/08/21 12:40:45;;;;;;;11.37;10.67;;;;;;;;;;4890943;29;20698;-71
2023/08/21 12:43:14;;;;;;;10.87;10.37;;;;;;;;;;4889109;29;20702;-70
2023/08/21 12:45:42;;;;;;;10.53;10.03;;;;;;;;;;4872072;29;20682;-71
2023/08/21 12:48:10;;;;;;;11.20;10.63;;;;;;;;;;4889533;29;20783;-70
2023/08/21 12:50:40;;;;;;;11.30;10.37;;;;;;;;;;4872039;29;20723;-70
2023/08/21 12:53:08;;;;;;;10.40;9.50;;;;;;;;;;4870876;29;20806;-70
2023/08/21 12:55:36;;;;;;;10.97;10.23;;;;;;;;;;4871401;29;20676;-70
2023/08/21 12:58:05;;;;;;;10.37;9.80;;;;;;;;;;4875616;29;20757;-70
2023/08/21 13:00:33;;;;;;;11.07;10.37;;;;;;;;;;4873663;29;20673;-70
2023/08/21 13:03:03;;;;;;;10.23;9.73;;;;;;;;;;4887923;29;20702;-70
2023/08/21 13:05:31;;;;;;;10.17;9.70;;;;;;;;;;4887145;29;20651;-70
2023/08/21 13:08:01;;;;;;;11.40;10.40;;;;;;;;;;4888967;29;20698;-70
2023/08/21 13:10:29;;;;;;;10.50;9.73;;;;;;;;;;4889525;29;20690;-72
2023/08/21 13:12:57;;;;;;;10.70;10.00;;;;;;;;;;4888016;29;20686;-71
2023/08/21 13:15:25;;;;;;;10.20;9.63;;;;;;;;;;4888435;29;21217;-71
2023/08/21 13:17:53;;;;;;;9.70;9.30;;;;;;;;;;4870519;29;20734;-71
2023/08/21 13:20:22;;;;;;;10.80;10.20;;;;;;;;;;4872021;29;20718;-72
2023/08/21 13:22:51;;;;;;;10.67;10.07;;;;;;;;;;4887618;29;20694;-72
2023/08/21 13:25:21;;;;;;;10.70;9.93;;;;;;;;;;4888758;29;20717;-71
2023/08/21 13:27:50;;;;;;;11.37;10.30;;;;;;;;;;4874840;29;20696;-71
2023/08/21 13:30:18;;;;;;;10.77;10.13;;;;;;;;;;4870234;29;20704;-72
2023/08/21 13:32:46;;;;;;;10.90;10.20;;;;;;;;;;4854001;29;20718;-72
2023/08/21 13:35:14;;;;;;;10.77;10.10;;;;;;;;;;4868689;29;21250;-71
2023/08/21 13:37:43;;;;;;;13.87;10.43;;;;;;;;;;4869654;29;20704;-72
2023/08/21 13:40:13;;;;;;;10.57;9.87;;;;;;;;;;4870274;29;20726;-71
2023/08/21 13:42:44;;;;;;;10.87;10.27;;;;;;;;;;4870508;29;20693;-70
2023/08/21 13:45:12;;;;;;;10.73;10.13;;;;;;;;;;4871657;29;20672;-71
2023/08/21 13:47:40;;;;;;;10.67;9.97;;;;;;;;;;4870382;29;20687;-71
2023/08/21 13:50:09;;;;;;;10.20;9.60;;;;;;;;;;4870450;29;20695;-72
2023/08/21 13:52:39;;;;;;;11.03;10.43;;;;;;;;;;4870786;29;20711;-71
2023/08/21 13:55:08;;;;;;;10.97;10.17;;;;;;;;;;4871372;29;20707;-69
2023/08/21 13:57:37;;;;;;;10.67;10.17;;;;;;;;;;4871678;29;20719;-68
2023/08/21 14:00:07;;;;;;;10.87;9.97;;;;;;;;;;4889841;29;20734;-69
2023/08/21 14:02:36;;;;;;;10.80;10.30;;;;;;;;;;4889374;29;20692;-69
2023/08/21 14:05:05;;;;;;;11.30;10.70;;;;;;;;;;4874247;29;20744;-72
2023/08/21 14:07:33;;;;;;;10.23;9.73;;;;;;;;;;4888027;29;20675;-68
2023/08/21 14:10:01;;;;;;;11.20;10.60;;;;;;;;;;4888017;29;20710;-71
2023/08/21 14:12:30;;;;;;;11.90;11.00;;;;;;;;;;4888541;29;20688;-72
2023/08/21 14:14:59;;;;;;;11.20;10.47;;;;;;;;;;4889445;29;20695;-71
2023/08/21 14:17:29;;;;;;;10.37;9.87;;;;;;;;;;4872972;29;20698;-69
2023/08/21 14:19:57;;;;;;;10.20;9.60;;;;;;;;;;4889224;29;20755;-69
2023/08/21 14:22:25;;;;;;;10.93;9.87;;;;;;;;;;4888884;29;20683;-68
2023/08/21 14:24:54;;;;;;;10.90;10.10;;;;;;;;;;4872939;29;20722;-69
2023/08/21 14:27:22;;;;;;;10.73;10.03;;;;;;;;;;4888170;29;20787;-69
2023/08/21 14:29:50;;;;;;;11.77;10.77;;;;;;;;;;4888117;29;20674;-69
2023/08/21 14:32:18;;;;;;;11.07;10.33;;;;;;;;;;4887015;29;20815;-70
2023/08/21 14:34:48;;;;;;;10.80;10.10;;;;;;;;;;4888045;29;20686;-70
2023/08/21 14:37:16;;;;;;;10.17;9.67;;;;;;;;;;4871986;29;20712;-69
2023/08/21 14:39:44;;;;;;;10.80;10.00;;;;;;;;;;4888370;29;20756;-69
2023/08/21 14:42:12;;;;;;;10.37;9.87;;;;;;;;;;4888948;29;20703;-69
2023/08/21 14:44:41;;;;;;;10.53;9.60;;;;;;;;;;4889380;29;20714;-69